sensor_id;sensor_type;location;lat;lon;timestamp;temperature;humidity
19538;DHT22;9914;51.008;4.300;2022-09-09T00:00:41;16.10;99.90
19538;DHT22;9914;51.008;4.300;2022-09-09T00:03:17;16.10;99.90
19538;DHT22;9914;51.008;4.300;2022-09-09T00:08:28;16.10;99.90
19538;DHT22;9914;51.008;4.300;2022-09-09T00:11:00;16.00;99.90
19538;DHT22;9914;51.008;4.300;2022-09-09T00:13:28;15.90;99.90
19538;DHT22;9914;51.008;4.300;2022-09-09T00:16:15;15.90;99.90
19538;DHT22;9914;51.008;4.300;2022-09-09T00:19:03;15.90;99.90
19538;DHT22;9914;51.008;4.300;2022-09-09T00:21:37;15.90;99.90
19538;DHT22;9914;51.008;4.300;2022-09-09T00:26:54;16.10;99.90
19538;DHT22;9914;51.008;4.300;2022-09-09T00:29:36;16.00;99.90
19538;DHT22;9914;51.008;4.300;2022-09-09T00:32:28;16.10;99.90
19538;DHT22;9914;51.008;4.300;2022-09-09T00:34:58;16.20;99.90
19538;DHT22;9914;51.008;4.300;2022-09-09T00:37:28;16.20;99.90
19538;DHT22;9914;51.008;4.300;2022-09-09T00:39:59;16.30;99.90
19538;DHT22;9914;51.008;4.300;2022-09-09T00:42:41;16.20;99.90
19538;DHT22;9914;51.008;4.300;2022-09-09T00:45:42;16.10;99.90
19538;DHT22;9914;51.008;4.300;2022-09-09T00:48:11;16.20;99.90
19538;DHT22;9914;51.008;4.300;2022-09-09T00:50:56;16.30;99.90
19538;DHT22;9914;51.008;4.300;2022-09-09T00:53:51;16.40;99.90
19538;DHT22;9914;51.008;4.300;2022-09-09T00:56:23;16.30;99.90
19538;DHT22;9914;51.008;4.300;2022-09-09T00:59:02;16.20;99.90
19538;DHT22;9914;51.008;4.300;2022-09-09T01:01:32;16.30;99.90
19538;DHT22;9914;51.008;4.300;2022-09-09T01:03:57;16.20;99.90
19538;DHT22;9914;51.008;4.300;2022-09-09T01:09:22;16.40;99.90
19538;DHT22;9914;51.008;4.300;2022-09-09T01:17:17;16.40;99.90
19538;DHT22;9914;51.008;4.300;2022-09-09T01:22:33;16.40;99.90
19538;DHT22;9914;51.008;4.300;2022-09-09T01:27:37;16.30;99.90
19538;DHT22;9914;51.008;4.300;2022-09-09T01:30:10;16.20;99.90
19538;DHT22;9914;51.008;4.300;2022-09-09T01:32:48;16.20;99.90
19538;DHT22;9914;51.008;4.300;2022-09-09T01:35:33;16.10;99.90
19538;DHT22;9914;51.008;4.300;2022-09-09T01:38:00;15.90;99.90
19538;DHT22;9914;51.008;4.300;2022-09-09T01:40:26;16.00;99.90
19538;DHT22;9914;51.008;4.300;2022-09-09T01:42:53;15.90;99.90
19538;DHT22;9914;51.008;4.300;2022-09-09T01:45:20;16.10;99.90
19538;DHT22;9914;51.008;4.300;2022-09-09T01:47:46;16.10;99.90
19538;DHT22;9914;51.008;4.300;2022-09-09T01:50:14;16.00;99.90
19538;DHT22;9914;51.008;4.300;2022-09-09T01:52:40;16.00;99.90
19538;DHT22;9914;51.008;4.300;2022-09-09T01:55:08;16.10;99.90
19538;DHT22;9914;51.008;4.300;2022-09-09T01:57:42;16.20;99.90
19538;DHT22;9914;51.008;4.300;2022-09-09T02:00:14;16.30;99.90
19538;DHT22;9914;51.008;4.300;2022-09-09T02:08:08;16.40;99.90
19538;DHT22;9914;51.008;4.300;2022-09-09T02:10:53;16.30;99.90
19538;DHT22;9914;51.008;4.300;2022-09-09T02:13:21;16.20;99.90
19538;DHT22;9914;51.008;4.300;2022-09-09T02:16:03;16.30;99.90
19538;DHT22;9914;51.008;4.300;2022-09-09T02:18:42;16.20;99.90
19538;DHT22;9914;51.008;4.300;2022-09-09T02:21:10;16.20;99.90
19538;DHT22;9914;51.008;4.300;2022-09-09T02:23:37;16.20;99.90
19538;DHT22;9914;51.008;4.300;2022-09-09T02:26:05;16.20;99.90
19538;DHT22;9914;51.008;4.300;2022-09-09T02:28:34;16.30;99.90
19538;DHT22;9914;51.008;4.300;2022-09-09T02:31:01;16.30;99.90
19538;DHT22;9914;51.008;4.300;2022-09-09T02:33:30;16.30;99.90
19538;DHT22;9914;51.008;4.300;2022-09-09T02:35:59;16.40;99.90
19538;DHT22;9914;51.008;4.300;2022-09-09T02:38:31;16.30;99.90
19538;DHT22;9914;51.008;4.300;2022-09-09T02:40:57;16.30;99.90
19538;DHT22;9914;51.008;4.300;2022-09-09T02:43:24;16.30;99.90
19538;DHT22;9914;51.008;4.300;2022-09-09T02:48:47;16.20;99.90
19538;DHT22;9914;51.008;4.300;2022-09-09T02:51:33;16.30;99.90
19538;DHT22;9914;51.008;4.300;2022-09-09T02:54:10;16.30;99.90
19538;DHT22;9914;51.008;4.300;2022-09-09T02:56:42;16.30;99.90
19538;DHT22;9914;51.008;4.300;2022-09-09T02:59:09;16.30;99.90
19538;DHT22;9914;51.008;4.300;2022-09-09T03:01:35;16.30;99.90
19538;DHT22;9914;51.008;4.300;2022-09-09T03:04:02;16.40;99.90
19538;DHT22;9914;51.008;4.300;2022-09-09T03:06:30;16.40;99.90
19538;DHT22;9914;51.008;4.300;2022-09-09T03:08:56;16.40;99.90
19538;DHT22;9914;51.008;4.300;2022-09-09T03:11:22;16.30;99.90
19538;DHT22;9914;51.008;4.300;2022-09-09T03:13:48;16.40;99.90
19538;DHT22;9914;51.008;4.300;2022-09-09T03:16:14;16.40;99.90
19538;DHT22;9914;51.008;4.300;2022-09-09T03:18:40;16.30;99.90
19538;DHT22;9914;51.008;4.300;2022-09-09T03:21:06;16.30;99.90
19538;DHT22;9914;51.008;4.300;2022-09-09T03:23:32;16.30;99.90
19538;DHT22;9914;51.008;4.300;2022-09-09T03:25:57;16.20;99.90
19538;DHT22;9914;51.008;4.300;2022-09-09T03:28:24;16.20;99.90
19538;DHT22;9914;51.008;4.300;2022-09-09T03:31:01;16.20;99.90
19538;DHT22;9914;51.008;4.300;2022-09-09T03:33:27;16.20;99.90
19538;DHT22;9914;51.008;4.300;2022-09-09T03:35:55;16.20;99.90
19538;DHT22;9914;51.008;4.300;2022-09-09T03:38:25;16.20;99.90
19538;DHT22;9914;51.008;4.300;2022-09-09T03:40:55;16.20;99.90
19538;DHT22;9914;51.008;4.300;2022-09-09T03:43:23;16.20;99.90
19538;DHT22;9914;51.008;4.300;2022-09-09T03:45:49;16.20;99.90
19538;DHT22;9914;51.008;4.300;2022-09-09T03:48:16;16.20;99.90
19538;DHT22;9914;51.008;4.300;2022-09-09T03:50:49;16.20;99.90
19538;DHT22;9914;51.008;4.300;2022-09-09T03:53:17;16.10;99.90
19538;DHT22;9914;51.008;4.300;2022-09-09T03:55:51;16.10;99.90
19538;DHT22;9914;51.008;4.300;2022-09-09T03:58:21;16.10;99.90
19538;DHT22;9914;51.008;4.300;2022-09-09T04:00:58;16.10;99.90
19538;DHT22;9914;51.008;4.300;2022-09-09T04:03:24;16.20;99.90
19538;DHT22;9914;51.008;4.300;2022-09-09T04:05:53;16.20;99.90
19538;DHT22;9914;51.008;4.300;2022-09-09T04:08:20;16.20;99.90
19538;DHT22;9914;51.008;4.300;2022-09-09T04:10:47;16.30;99.90
19538;DHT22;9914;51.008;4.300;2022-09-09T04:13:14;16.30;99.90
19538;DHT22;9914;51.008;4.300;2022-09-09T04:15:41;16.30;99.90
19538;DHT22;9914;51.008;4.300;2022-09-09T04:18:07;16.40;99.90
19538;DHT22;9914;51.008;4.300;2022-09-09T04:20:33;16.40;99.90
19538;DHT22;9914;51.008;4.300;2022-09-09T04:22:59;16.40;99.90
19538;DHT22;9914;51.008;4.300;2022-09-09T04:25:25;16.40;99.90
19538;DHT22;9914;51.008;4.300;2022-09-09T04:27:55;16.30;99.90
19538;DHT22;9914;51.008;4.300;2022-09-09T04:30:21;16.30;99.90
19538;DHT22;9914;51.008;4.300;2022-09-09T04:32:47;16.30;99.90
19538;DHT22;9914;51.008;4.300;2022-09-09T04:35:13;16.20;99.90
19538;DHT22;9914;51.008;4.300;2022-09-09T04:37:38;16.20;99.90
19538;DHT22;9914;51.008;4.300;2022-09-09T04:40:05;16.20;99.90
19538;DHT22;9914;51.008;4.300;2022-09-09T04:42:38;16.20;99.90
19538;DHT22;9914;51.008;4.300;2022-09-09T04:45:05;16.20;99.90
19538;DHT22;9914;51.008;4.300;2022-09-09T04:47:31;16.10;99.90
19538;DHT22;9914;51.008;4.300;2022-09-09T04:49:57;16.00;99.90
19538;DHT22;9914;51.008;4.300;2022-09-09T04:52:24;16.00;99.90
19538;DHT22;9914;51.008;4.300;2022-09-09T04:54:49;16.10;99.90
19538;DHT22;9914;51.008;4.300;2022-09-09T04:57:15;16.10;99.90
19538;DHT22;9914;51.008;4.300;2022-09-09T04:59:40;16.10;99.90
19538;DHT22;9914;51.008;4.300;2022-09-09T05:02:06;16.10;99.90
19538;DHT22;9914;51.008;4.300;2022-09-09T05:04:32;16.10;99.90
19538;DHT22;9914;51.008;4.300;2022-09-09T05:06:58;16.20;99.90
19538;DHT22;9914;51.008;4.300;2022-09-09T05:09:24;16.20;99.90
19538;DHT22;9914;51.008;4.300;2022-09-09T05:11:50;16.30;99.90
19538;DHT22;9914;51.008;4.300;2022-09-09T05:14:15;16.30;99.90
19538;DHT22;9914;51.008;4.300;2022-09-09T05:16:41;16.30;99.90
19538;DHT22;9914;51.008;4.300;2022-09-09T05:19:09;16.30;99.90
19538;DHT22;9914;51.008;4.300;2022-09-09T05:21:35;16.30;99.90
19538;DHT22;9914;51.008;4.300;2022-09-09T05:24:01;16.40;99.90
19538;DHT22;9914;51.008;4.300;2022-09-09T05:26:27;16.40;99.90
19538;DHT22;9914;51.008;4.300;2022-09-09T05:28:54;16.40;99.90
19538;DHT22;9914;51.008;4.300;2022-09-09T05:31:20;16.40;99.90
19538;DHT22;9914;51.008;4.300;2022-09-09T05:33:47;16.50;99.90
19538;DHT22;9914;51.008;4.300;2022-09-09T05:36:16;16.50;99.90
19538;DHT22;9914;51.008;4.300;2022-09-09T05:38:43;16.60;99.90
19538;DHT22;9914;51.008;4.300;2022-09-09T05:41:10;16.70;99.90
19538;DHT22;9914;51.008;4.300;2022-09-09T05:43:37;16.70;99.90
19538;DHT22;9914;51.008;4.300;2022-09-09T05:46:08;16.70;99.90
19538;DHT22;9914;51.008;4.300;2022-09-09T05:48:35;16.80;99.90
19538;DHT22;9914;51.008;4.300;2022-09-09T05:51:01;16.90;99.90
19538;DHT22;9914;51.008;4.300;2022-09-09T05:53:28;16.80;99.90
19538;DHT22;9914;51.008;4.300;2022-09-09T05:56:08;16.70;99.90
19538;DHT22;9914;51.008;4.300;2022-09-09T05:58:38;16.70;99.90
19538;DHT22;9914;51.008;4.300;2022-09-09T06:01:11;16.60;99.90
19538;DHT22;9914;51.008;4.300;2022-09-09T06:03:39;16.70;99.90
19538;DHT22;9914;51.008;4.300;2022-09-09T06:06:07;16.70;99.90
19538;DHT22;9914;51.008;4.300;2022-09-09T06:08:34;16.80;99.90
19538;DHT22;9914;51.008;4.300;2022-09-09T06:11:11;16.90;99.90
19538;DHT22;9914;51.008;4.300;2022-09-09T06:13:37;17.00;99.90
19538;DHT22;9914;51.008;4.300;2022-09-09T06:16:04;17.00;99.90
19538;DHT22;9914;51.008;4.300;2022-09-09T06:18:30;17.00;99.90
19538;DHT22;9914;51.008;4.300;2022-09-09T06:21:04;17.00;99.90
19538;DHT22;9914;51.008;4.300;2022-09-09T06:23:31;17.00;99.90
19538;DHT22;9914;51.008;4.300;2022-09-09T06:26:12;16.90;99.90
19538;DHT22;9914;51.008;4.300;2022-09-09T06:28:38;16.80;99.90
19538;DHT22;9914;51.008;4.300;2022-09-09T06:31:09;16.90;99.90
19538;DHT22;9914;51.008;4.300;2022-09-09T06:33:37;17.10;99.90
19538;DHT22;9914;51.008;4.300;2022-09-09T06:36:07;17.10;99.90
19538;DHT22;9914;51.008;4.300;2022-09-09T06:38:35;17.10;99.90
19538;DHT22;9914;51.008;4.300;2022-09-09T06:41:01;17.10;99.90
19538;DHT22;9914;51.008;4.300;2022-09-09T06:43:27;17.00;99.90
19538;DHT22;9914;51.008;4.300;2022-09-09T06:45:58;17.10;99.90
19538;DHT22;9914;51.008;4.300;2022-09-09T06:48:24;17.30;99.90
19538;DHT22;9914;51.008;4.300;2022-09-09T06:51:10;17.40;99.90
19538;DHT22;9914;51.008;4.300;2022-09-09T06:53:38;17.50;99.90
19538;DHT22;9914;51.008;4.300;2022-09-09T06:58:36;17.70;99.90
19538;DHT22;9914;51.008;4.300;2022-09-09T07:01:06;17.80;99.90
19538;DHT22;9914;51.008;4.300;2022-09-09T07:03:32;17.80;99.90
19538;DHT22;9914;51.008;4.300;2022-09-09T07:05:59;18.00;99.90
19538;DHT22;9914;51.008;4.300;2022-09-09T07:08:24;18.10;99.90
19538;DHT22;9914;51.008;4.300;2022-09-09T07:10:51;18.00;99.90
19538;DHT22;9914;51.008;4.300;2022-09-09T07:13:23;18.00;99.90
19538;DHT22;9914;51.008;4.300;2022-09-09T07:15:50;17.90;99.90
19538;DHT22;9914;51.008;4.300;2022-09-09T07:18:16;17.80;99.90
19538;DHT22;9914;51.008;4.300;2022-09-09T07:20:41;17.80;99.90
19538;DHT22;9914;51.008;4.300;2022-09-09T07:23:07;17.70;99.90
19538;DHT22;9914;51.008;4.300;2022-09-09T07:25:33;17.70;99.90
19538;DHT22;9914;51.008;4.300;2022-09-09T07:27:58;17.70;99.90
19538;DHT22;9914;51.008;4.300;2022-09-09T07:30:24;17.80;99.90
19538;DHT22;9914;51.008;4.300;2022-09-09T07:32:51;17.80;99.90
19538;DHT22;9914;51.008;4.300;2022-09-09T07:35:17;18.00;99.90
19538;DHT22;9914;51.008;4.300;2022-09-09T07:37:43;17.90;99.90
19538;DHT22;9914;51.008;4.300;2022-09-09T07:40:09;17.90;99.90
19538;DHT22;9914;51.008;4.300;2022-09-09T07:42:35;17.80;99.90
19538;DHT22;9914;51.008;4.300;2022-09-09T07:45:03;17.80;99.90
19538;DHT22;9914;51.008;4.300;2022-09-09T07:47:29;17.80;99.90
19538;DHT22;9914;51.008;4.300;2022-09-09T07:49:55;17.90;99.90
19538;DHT22;9914;51.008;4.300;2022-09-09T07:52:21;17.80;99.90
19538;DHT22;9914;51.008;4.300;2022-09-09T07:54:47;17.90;99.90
19538;DHT22;9914;51.008;4.300;2022-09-09T07:57:13;18.00;99.90
19538;DHT22;9914;51.008;4.300;2022-09-09T07:59:39;18.10;99.90
19538;DHT22;9914;51.008;4.300;2022-09-09T08:02:06;18.20;99.90
19538;DHT22;9914;51.008;4.300;2022-09-09T08:04:32;18.20;99.90
19538;DHT22;9914;51.008;4.300;2022-09-09T08:06:59;18.30;99.90
19538;DHT22;9914;51.008;4.300;2022-09-09T08:09:27;18.40;99.90
19538;DHT22;9914;51.008;4.300;2022-09-09T08:11:55;18.50;99.90
19538;DHT22;9914;51.008;4.300;2022-09-09T08:14:22;18.50;99.90
19538;DHT22;9914;51.008;4.300;2022-09-09T08:16:49;18.60;99.90
19538;DHT22;9914;51.008;4.300;2022-09-09T08:19:15;18.60;99.90
19538;DHT22;9914;51.008;4.300;2022-09-09T08:21:43;18.40;99.90
19538;DHT22;9914;51.008;4.300;2022-09-09T08:24:10;18.40;99.90
19538;DHT22;9914;51.008;4.300;2022-09-09T08:26:41;18.50;99.90
19538;DHT22;9914;51.008;4.300;2022-09-09T08:29:08;18.70;99.90
19538;DHT22;9914;51.008;4.300;2022-09-09T08:31:50;18.80;99.90
19538;DHT22;9914;51.008;4.300;2022-09-09T08:34:17;18.80;99.90
19538;DHT22;9914;51.008;4.300;2022-09-09T08:36:46;18.80;99.90
19538;DHT22;9914;51.008;4.300;2022-09-09T08:39:14;19.00;99.90
19538;DHT22;9914;51.008;4.300;2022-09-09T08:42:08;19.10;99.90
19538;DHT22;9914;51.008;4.300;2022-09-09T08:47:45;19.00;99.90
19538;DHT22;9914;51.008;4.300;2022-09-09T08:50:31;18.90;99.90
19538;DHT22;9914;51.008;4.300;2022-09-09T08:55:53;18.50;99.90
19538;DHT22;9914;51.008;4.300;2022-09-09T08:58:21;18.30;99.90
19538;DHT22;9914;51.008;4.300;2022-09-09T09:09:06;18.10;99.90
19538;DHT22;9914;51.008;4.300;2022-09-09T09:11:43;18.10;99.90
19538;DHT22;9914;51.008;4.300;2022-09-09T09:14:25;17.90;99.90
19538;DHT22;9914;51.008;4.300;2022-09-09T09:19:17;18.00;99.90
19538;DHT22;9914;51.008;4.300;2022-09-09T09:24:52;18.20;99.90
19538;DHT22;9914;51.008;4.300;2022-09-09T09:27:40;18.30;99.90
19538;DHT22;9914;51.008;4.300;2022-09-09T09:30:17;18.30;99.90
19538;DHT22;9914;51.008;4.300;2022-09-09T09:35:38;18.30;99.90
19538;DHT22;9914;51.008;4.300;2022-09-09T09:38:18;18.50;99.90
19538;DHT22;9914;51.008;4.300;2022-09-09T09:40:57;18.30;99.90
19538;DHT22;9914;51.008;4.300;2022-09-09T09:43:28;18.50;99.90
19538;DHT22;9914;51.008;4.300;2022-09-09T09:45:55;18.60;99.90
19538;DHT22;9914;51.008;4.300;2022-09-09T09:48:23;18.80;99.90
19538;DHT22;9914;51.008;4.300;2022-09-09T09:53:28;18.70;99.90
19538;DHT22;9914;51.008;4.300;2022-09-09T09:56:03;18.70;99.90
19538;DHT22;9914;51.008;4.300;2022-09-09T09:58:31;18.70;99.90
19538;DHT22;9914;51.008;4.300;2022-09-09T10:00:59;18.60;99.90
19538;DHT22;9914;51.008;4.300;2022-09-09T10:03:31;18.60;99.90
19538;DHT22;9914;51.008;4.300;2022-09-09T10:05:58;18.60;99.90
19538;DHT22;9914;51.008;4.300;2022-09-09T10:08:25;18.70;99.90
19538;DHT22;9914;51.008;4.300;2022-09-09T10:11:22;18.70;99.90
19538;DHT22;9914;51.008;4.300;2022-09-09T10:17:07;18.70;99.90
19538;DHT22;9914;51.008;4.300;2022-09-09T10:19:37;18.80;99.90
19538;DHT22;9914;51.008;4.300;2022-09-09T10:25:10;19.00;99.90
19538;DHT22;9914;51.008;4.300;2022-09-09T10:28:30;19.20;99.90
19538;DHT22;9914;51.008;4.300;2022-09-09T10:33:32;19.40;99.90
19538;DHT22;9914;51.008;4.300;2022-09-09T10:36:13;19.40;99.90
19538;DHT22;9914;51.008;4.300;2022-09-09T10:38:47;19.40;99.90
19538;DHT22;9914;51.008;4.300;2022-09-09T10:41:20;19.40;99.90
19538;DHT22;9914;51.008;4.300;2022-09-09T10:44:40;19.80;99.90
19538;DHT22;9914;51.008;4.300;2022-09-09T10:53:01;19.40;99.90
19538;DHT22;9914;51.008;4.300;2022-09-09T10:55:49;19.30;99.90
19538;DHT22;9914;51.008;4.300;2022-09-09T10:58:24;19.30;99.90
19538;DHT22;9914;51.008;4.300;2022-09-09T11:00:57;19.10;99.90
19538;DHT22;9914;51.008;4.300;2022-09-09T11:03:31;19.10;99.90
19538;DHT22;9914;51.008;4.300;2022-09-09T11:06:06;19.10;99.90
19538;DHT22;9914;51.008;4.300;2022-09-09T11:08:38;19.20;99.90
19538;DHT22;9914;51.008;4.300;2022-09-09T11:16:52;19.60;99.90
19538;DHT22;9914;51.008;4.300;2022-09-09T11:19:34;20.00;99.90
19538;DHT22;9914;51.008;4.300;2022-09-09T11:25:26;20.10;99.90
19538;DHT22;9914;51.008;4.300;2022-09-09T11:30:47;20.40;99.90
19538;DHT22;9914;51.008;4.300;2022-09-09T11:38:45;20.80;99.90
19538;DHT22;9914;51.008;4.300;2022-09-09T11:41:13;20.80;99.90
19538;DHT22;9914;51.008;4.300;2022-09-09T11:43:56;20.70;99.90
19538;DHT22;9914;51.008;4.300;2022-09-09T11:46:34;20.70;99.90
19538;DHT22;9914;51.008;4.300;2022-09-09T11:49:05;20.80;99.90
19538;DHT22;9914;51.008;4.300;2022-09-09T11:51:32;20.90;99.90
19538;DHT22;9914;51.008;4.300;2022-09-09T11:54:01;20.70;99.90
19538;DHT22;9914;51.008;4.300;2022-09-09T11:56:44;20.60;99.90
19538;DHT22;9914;51.008;4.300;2022-09-09T11:59:24;20.90;99.90
19538;DHT22;9914;51.008;4.300;2022-09-09T12:07:21;20.60;99.90
19538;DHT22;9914;51.008;4.300;2022-09-09T12:09:58;20.50;99.90
19538;DHT22;9914;51.008;4.300;2022-09-09T12:12:28;20.50;99.90
19538;DHT22;9914;51.008;4.300;2022-09-09T12:17:23;21.00;99.90
19538;DHT22;9914;51.008;4.300;2022-09-09T12:20:22;21.20;99.90
19538;DHT22;9914;51.008;4.300;2022-09-09T12:23:08;21.10;99.90
19538;DHT22;9914;51.008;4.300;2022-09-09T12:28:25;21.20;99.90
19538;DHT22;9914;51.008;4.300;2022-09-09T12:31:14;21.20;99.90
19538;DHT22;9914;51.008;4.300;2022-09-09T12:33:44;21.50;99.90
19538;DHT22;9914;51.008;4.300;2022-09-09T12:36:27;21.80;99.90
19538;DHT22;9914;51.008;4.300;2022-09-09T12:38:57;22.00;99.90
19538;DHT22;9914;51.008;4.300;2022-09-09T12:41:26;21.60;99.90
19538;DHT22;9914;51.008;4.300;2022-09-09T12:44:04;21.50;99.90
19538;DHT22;9914;51.008;4.300;2022-09-09T12:49:03;21.70;99.90
19538;DHT22;9914;51.008;4.300;2022-09-09T12:51:31;21.70;99.90
19538;DHT22;9914;51.008;4.300;2022-09-09T12:53:59;21.90;99.90
19538;DHT22;9914;51.008;4.300;2022-09-09T12:56:30;21.80;99.90
19538;DHT22;9914;51.008;4.300;2022-09-09T12:58:57;21.70;99.90
19538;DHT22;9914;51.008;4.300;2022-09-09T13:01:29;21.50;99.90
19538;DHT22;9914;51.008;4.300;2022-09-09T13:03:56;21.70;99.90
19538;DHT22;9914;51.008;4.300;2022-09-09T13:06:24;21.70;99.90
19538;DHT22;9914;51.008;4.300;2022-09-09T13:08:51;21.90;99.90
19538;DHT22;9914;51.008;4.300;2022-09-09T13:11:21;21.80;99.90
19538;DHT22;9914;51.008;4.300;2022-09-09T13:13:52;21.60;99.90
19538;DHT22;9914;51.008;4.300;2022-09-09T13:16:29;21.50;99.90
19538;DHT22;9914;51.008;4.300;2022-09-09T13:18:58;21.50;99.90
19538;DHT22;9914;51.008;4.300;2022-09-09T13:21:35;21.40;99.90
19538;DHT22;9914;51.008;4.300;2022-09-09T13:24:03;21.70;99.90
19538;DHT22;9914;51.008;4.300;2022-09-09T13:26:29;21.70;99.90
19538;DHT22;9914;51.008;4.300;2022-09-09T13:29:15;21.70;99.90
19538;DHT22;9914;51.008;4.300;2022-09-09T13:31:43;21.80;99.90
19538;DHT22;9914;51.008;4.300;2022-09-09T13:34:13;21.80;99.90
19538;DHT22;9914;51.008;4.300;2022-09-09T13:36:40;21.90;99.90
19538;DHT22;9914;51.008;4.300;2022-09-09T13:39:15;21.90;99.90
19538;DHT22;9914;51.008;4.300;2022-09-09T13:41:44;21.90;99.90
19538;DHT22;9914;51.008;4.300;2022-09-09T13:44:39;21.80;99.90
19538;DHT22;9914;51.008;4.300;2022-09-09T13:49:38;21.80;99.90
19538;DHT22;9914;51.008;4.300;2022-09-09T13:52:12;21.90;99.90
19538;DHT22;9914;51.008;4.300;2022-09-09T13:54:39;22.50;99.90
19538;DHT22;9914;51.008;4.300;2022-09-09T13:57:05;22.70;99.90
19538;DHT22;9914;51.008;4.300;2022-09-09T13:59:31;22.80;99.90
19538;DHT22;9914;51.008;4.300;2022-09-09T14:01:57;22.70;99.90
19538;DHT22;9914;51.008;4.300;2022-09-09T14:04:23;22.40;99.90
19538;DHT22;9914;51.008;4.300;2022-09-09T14:06:49;22.20;99.90
19538;DHT22;9914;51.008;4.300;2022-09-09T14:09:17;22.30;99.90
19538;DHT22;9914;51.008;4.300;2022-09-09T14:11:44;22.30;99.90
19538;DHT22;9914;51.008;4.300;2022-09-09T14:14:10;22.60;99.90
19538;DHT22;9914;51.008;4.300;2022-09-09T14:16:36;22.80;99.90
19538;DHT22;9914;51.008;4.300;2022-09-09T14:19:03;22.80;99.90
19538;DHT22;9914;51.008;4.300;2022-09-09T14:21:29;22.90;99.90
19538;DHT22;9914;51.008;4.300;2022-09-09T14:23:54;23.10;99.90
19538;DHT22;9914;51.008;4.300;2022-09-09T14:26:21;23.00;99.90
19538;DHT22;9914;51.008;4.300;2022-09-09T14:28:47;22.90;99.90
19538;DHT22;9914;51.008;4.300;2022-09-09T14:31:13;22.80;99.90
19538;DHT22;9914;51.008;4.300;2022-09-09T14:33:40;22.80;99.90
19538;DHT22;9914;51.008;4.300;2022-09-09T14:36:06;22.70;99.90
19538;DHT22;9914;51.008;4.300;2022-09-09T14:38:33;22.60;99.90
19538;DHT22;9914;51.008;4.300;2022-09-09T14:41:00;22.60;99.90
19538;DHT22;9914;51.008;4.300;2022-09-09T14:43:28;22.60;99.90
19538;DHT22;9914;51.008;4.300;2022-09-09T14:45:55;22.70;99.90
19538;DHT22;9914;51.008;4.300;2022-09-09T14:48:21;22.80;99.90
19538;DHT22;9914;51.008;4.300;2022-09-09T14:50:47;22.60;99.90
19538;DHT22;9914;51.008;4.300;2022-09-09T14:53:12;22.60;99.90
19538;DHT22;9914;51.008;4.300;2022-09-09T14:55:38;22.50;99.90
19538;DHT22;9914;51.008;4.300;2022-09-09T14:58:04;22.70;99.90
19538;DHT22;9914;51.008;4.300;2022-09-09T15:00:31;22.80;99.90
19538;DHT22;9914;51.008;4.300;2022-09-09T15:02:57;22.90;99.90
19538;DHT22;9914;51.008;4.300;2022-09-09T15:05:23;22.80;99.90
19538;DHT22;9914;51.008;4.300;2022-09-09T15:07:50;22.70;99.90
19538;DHT22;9914;51.008;4.300;2022-09-09T15:10:16;22.40;99.90
19538;DHT22;9914;51.008;4.300;2022-09-09T15:12:43;22.20;99.90
19538;DHT22;9914;51.008;4.300;2022-09-09T15:15:09;21.80;99.90
19538;DHT22;9914;51.008;4.300;2022-09-09T15:17:35;21.60;99.90
19538;DHT22;9914;51.008;4.300;2022-09-09T15:20:05;21.60;99.90
19538;DHT22;9914;51.008;4.300;2022-09-09T15:22:33;21.10;99.90
19538;DHT22;9914;51.008;4.300;2022-09-09T15:24:59;21.20;99.90
19538;DHT22;9914;51.008;4.300;2022-09-09T15:27:25;21.10;99.90
19538;DHT22;9914;51.008;4.300;2022-09-09T15:29:50;21.00;99.90
19538;DHT22;9914;51.008;4.300;2022-09-09T15:32:17;21.00;99.90
19538;DHT22;9914;51.008;4.300;2022-09-09T15:34:43;21.00;99.90
19538;DHT22;9914;51.008;4.300;2022-09-09T15:37:10;20.90;99.90
19538;DHT22;9914;51.008;4.300;2022-09-09T15:39:38;21.00;99.90
19538;DHT22;9914;51.008;4.300;2022-09-09T15:42:04;21.00;99.90
19538;DHT22;9914;51.008;4.300;2022-09-09T15:44:38;21.00;99.90
19538;DHT22;9914;51.008;4.300;2022-09-09T15:47:04;21.00;99.90
19538;DHT22;9914;51.008;4.300;2022-09-09T15:49:29;20.90;99.90
19538;DHT22;9914;51.008;4.300;2022-09-09T15:51:59;20.80;99.90
19538;DHT22;9914;51.008;4.300;2022-09-09T15:54:27;20.60;99.90
19538;DHT22;9914;51.008;4.300;2022-09-09T15:56:58;20.50;99.90
19538;DHT22;9914;51.008;4.300;2022-09-09T15:59:25;20.40;99.90
19538;DHT22;9914;51.008;4.300;2022-09-09T16:01:51;20.50;99.90
19538;DHT22;9914;51.008;4.300;2022-09-09T16:04:21;20.50;99.90
19538;DHT22;9914;51.008;4.300;2022-09-09T16:07:00;20.60;99.90
19538;DHT22;9914;51.008;4.300;2022-09-09T16:09:27;20.70;99.90
19538;DHT22;9914;51.008;4.300;2022-09-09T16:11:55;20.70;99.90
19538;DHT22;9914;51.008;4.300;2022-09-09T16:14:21;20.60;99.90
19538;DHT22;9914;51.008;4.300;2022-09-09T16:16:47;20.70;99.90
19538;DHT22;9914;51.008;4.300;2022-09-09T16:19:13;20.90;99.90
19538;DHT22;9914;51.008;4.300;2022-09-09T16:21:44;20.90;99.90
19538;DHT22;9914;51.008;4.300;2022-09-09T16:24:13;21.00;99.90
19538;DHT22;9914;51.008;4.300;2022-09-09T16:26:43;21.00;99.90
19538;DHT22;9914;51.008;4.300;2022-09-09T16:29:11;20.90;99.90
19538;DHT22;9914;51.008;4.300;2022-09-09T16:31:37;20.80;99.90
19538;DHT22;9914;51.008;4.300;2022-09-09T16:34:03;20.70;99.90
19538;DHT22;9914;51.008;4.300;2022-09-09T16:36:31;20.80;99.90
19538;DHT22;9914;51.008;4.300;2022-09-09T16:38:59;20.70;99.90
19538;DHT22;9914;51.008;4.300;2022-09-09T16:41:27;20.70;99.90
19538;DHT22;9914;51.008;4.300;2022-09-09T16:43:56;20.70;99.90
19538;DHT22;9914;51.008;4.300;2022-09-09T16:46:22;20.60;99.90
19538;DHT22;9914;51.008;4.300;2022-09-09T16:48:49;20.40;99.90
19538;DHT22;9914;51.008;4.300;2022-09-09T16:51:23;20.10;99.90
19538;DHT22;9914;51.008;4.300;2022-09-09T16:53:49;20.60;99.90
19538;DHT22;9914;51.008;4.300;2022-09-09T16:56:18;21.60;99.90
19538;DHT22;9914;51.008;4.300;2022-09-09T16:58:50;21.80;99.90
19538;DHT22;9914;51.008;4.300;2022-09-09T17:01:15;21.80;99.90
19538;DHT22;9914;51.008;4.300;2022-09-09T17:03:41;22.10;99.90
19538;DHT22;9914;51.008;4.300;2022-09-09T17:06:11;22.20;99.90
19538;DHT22;9914;51.008;4.300;2022-09-09T17:08:40;22.10;99.90
19538;DHT22;9914;51.008;4.300;2022-09-09T17:11:17;22.00;99.90
19538;DHT22;9914;51.008;4.300;2022-09-09T17:13:44;21.80;99.90
19538;DHT22;9914;51.008;4.300;2022-09-09T17:16:11;21.80;99.90
19538;DHT22;9914;51.008;4.300;2022-09-09T17:18:37;21.60;99.90
19538;DHT22;9914;51.008;4.300;2022-09-09T17:21:09;21.50;99.90
19538;DHT22;9914;51.008;4.300;2022-09-09T17:23:36;21.50;99.90
19538;DHT22;9914;51.008;4.300;2022-09-09T17:26:05;21.40;99.90
19538;DHT22;9914;51.008;4.300;2022-09-09T17:28:32;21.20;99.90
19538;DHT22;9914;51.008;4.300;2022-09-09T17:30:58;21.00;99.90
19538;DHT22;9914;51.008;4.300;2022-09-09T17:33:27;20.90;99.90
19538;DHT22;9914;51.008;4.300;2022-09-09T17:35:57;20.90;99.90
19538;DHT22;9914;51.008;4.300;2022-09-09T17:38:23;20.60;99.90
19538;DHT22;9914;51.008;4.300;2022-09-09T17:40:49;20.50;99.90
19538;DHT22;9914;51.008;4.300;2022-09-09T17:43:16;20.40;99.90
19538;DHT22;9914;51.008;4.300;2022-09-09T17:45:42;20.40;99.90